Terminal Aerodrome Forecast
Issued by NWS Portland, OR

Home | Current Version | Previous Version | Text Only | Print | Product List | Glossary On
Versions: 1 2 3 4 5 6 7 8 9 10 11 12 13 14 15 16 17 18 19 20 21 22 23 24 25 26 27 28 29 30 31 32 33 34 35 36 37 38 39 40
000
FTUS46 KPQR 220522
TAFHIO
TAF
KHIO 220522Z 2206/2306 12005KT 2SM -SN OVC025
     FM220700 14005KT 1/2SM SN BKN006 OVC015
     FM221100 06005KT 4SM -SN SCT006 BKN012 OVC025
     FM221400 04005KT P6SM SCT015 BKN025 BKN100
     FM221700 04005KT P6SM SCT025 BKN100
     FM222100 36007KT P6SM SCT250=

USA.gov is the U.S. government's official web portal to all federal, state and local government web resources and services.